LFOE 200630Z AUTO 25004KT CAVOK 12/10 Q1026

ElémentsDécodage
LFOE Station météo située sur l'aérodrome de EVREUX Fauville
200630Z émis le 20 du mois à 06h30 UTC
AUTO Bulletin édité par un automate
25004KT vent du 250°, 04 noeuds
CAVOK Ceiling And Visibility OK
- Visibilité de 10 Km ou plus
- Pas de nuage au-dessous de 1500m ou au-dessous de l'altitude minimale du secteur la plus élevée (si>1500m) et absence de CB
- pas de temps présent significatif
12/10 température 12°C, point de rosée 10°C
 soit une humidité relative de 88%
Q1026 la pression au niveau de la mer (QNH) est de 1026 hPa